Time;durP1;ratioP1;P1;durP2;ratioP2;P2;SDS_P1;SDS_P2;PMS_P1;PMS_P2;Temp;Humidity;BMP_temperature;BMP_pressure;BME280_temperature;BME280_humidity;BME280_pressure;Samples;Min_cycle;Max_cycle;Signal;HPM_P1;HPM_P2
2023/10/15 00:01:45;;;;;;;2.53;1.10;;;17.70;71.20;;;;;;5112558;28;20176;-64
2023/10/15 00:04:12;;;;;;;1.55;1.17;;;17.70;71.30;;;;;;5112980;28;20673;-64
2023/10/15 00:06:38;;;;;;;3.20;1.20;;;17.70;71.30;;;;;;5112239;28;20678;-64
2023/10/15 00:09:04;;;;;;;3.40;1.60;;;17.70;71.30;;;;;;5112984;28;20184;-66
2023/10/15 00:11:30;;;;;;;2.17;1.50;;;17.70;71.30;;;;;;5094765;28;20169;-65
2023/10/15 00:13:55;;;;;;;1.63;0.90;;;17.70;71.40;;;;;;5112617;28;20183;-65
2023/10/15 00:16:21;;;;;;;1.80;1.15;;;17.60;71.30;;;;;;5113094;28;20173;-65
2023/10/15 00:18:47;;;;;;;1.10;0.98;;;17.70;71.30;;;;;;5113163;28;20170;-65
2023/10/15 00:21:12;;;;;;;1.77;0.98;;;17.70;71.40;;;;;;5112069;28;20273;-65
2023/10/15 00:23:40;;;;;;;2.50;1.13;;;17.70;71.40;;;;;;5112920;28;20173;-66
2023/10/15 00:26:07;;;;;;;1.60;1.20;;;17.60;71.40;;;;;;5112583;28;20257;-64
2023/10/15 00:28:33;;;;;;;1.48;1.00;;;17.60;71.40;;;;;;5112128;28;20173;-65
2023/10/15 00:31:00;;;;;;;2.25;1.17;;;17.60;71.30;;;;;;5112862;28;20177;-64
2023/10/15 00:33:26;;;;;;;1.67;0.90;;;17.60;71.40;;;;;;5112831;28;20177;-65
2023/10/15 00:35:55;;;;;;;1.77;0.98;;;17.60;72.10;;;;;;5112300;28;20718;-65
2023/10/15 00:38:20;;;;;;;1.45;0.90;;;17.60;71.30;;;;;;5112365;28;20191;-65
2023/10/15 00:40:52;;;;;;;1.23;0.90;;;17.60;71.30;;;;;;5113006;28;20683;-65
2023/10/15 00:43:17;;;;;;;1.25;0.95;;;17.60;71.40;;;;;;5111725;28;20691;-65
2023/10/15 00:45:46;;;;;;;1.50;1.10;;;17.60;72.10;;;;;;5112775;28;20301;-64
2023/10/15 00:48:13;;;;;;;1.33;1.20;;;17.60;71.30;;;;;;5112424;28;20536;-65
2023/10/15 00:50:40;;;;;;;1.48;1.00;;;17.60;71.30;;;;;;5111655;28;20220;-64
2023/10/15 00:53:23;;;;;;;1.55;1.00;;;17.60;71.40;;;;;;5112515;28;20376;-65
2023/10/15 00:55:52;;;;;;;1.10;1.00;;;17.60;71.40;;;;;;5096204;28;20181;-65
2023/10/15 00:58:31;;;;;;;1.35;0.90;;;17.60;71.40;;;;;;5112305;28;20173;-66
2023/10/15 01:01:00;;;;;;;2.55;1.23;;;17.60;71.40;;;;;;5112693;28;20181;-64
2023/10/15 01:03:30;;;;;;;2.03;1.35;;;17.60;71.40;;;;;;5094121;28;20174;-65
2023/10/15 01:06:04;;;;;;;1.90;1.10;;;17.60;71.40;;;;;;5112702;28;20217;-64
2023/10/15 01:08:38;;;;;;;1.35;0.88;;;17.60;71.40;;;;;;5113153;28;20254;-65
2023/10/15 01:11:10;;;;;;;1.80;1.00;;;17.60;71.40;;;;;;5115570;28;20639;-64
2023/10/15 01:13:39;;;;;;;1.52;1.00;;;17.60;71.40;;;;;;5116378;28;20202;-65
2023/10/15 01:16:13;;;;;;;1.77;1.10;;;17.60;71.30;;;;;;5116164;28;20207;-65
2023/10/15 01:18:38;;;;;;;1.52;0.90;;;17.50;71.30;;;;;;5115536;28;20180;-65
2023/10/15 01:21:09;;;;;;;2.13;1.00;;;17.50;71.30;;;;;;5116002;28;20181;-65
2023/10/15 01:26:09;;;;;;;2.00;1.05;;;17.50;71.30;;;;;;5115299;28;20247;-65
2023/10/15 01:28:38;;;;;;;1.45;1.00;;;17.50;71.30;;;;;;5115965;28;20177;-65
2023/10/15 01:31:06;;;;;;;0.90;0.70;;;17.50;71.30;;;;;;5115103;28;20624;-65
2023/10/15 01:33:45;;;;;;;1.05;0.90;;;17.50;71.30;;;;;;5115968;28;20192;-63
2023/10/15 01:36:15;;;;;;;1.10;0.90;;;17.50;71.30;;;;;;5115800;28;20229;-65
2023/10/15 01:38:43;;;;;;;1.70;0.80;;;17.50;71.40;;;;;;5115111;28;20173;-65
2023/10/15 01:41:13;;;;;;;1.55;0.80;;;17.50;71.70;;;;;;5115941;28;20507;-65
2023/10/15 01:43:39;;;;;;;0.88;0.70;;;17.50;71.30;;;;;;5115702;28;20606;-65
2023/10/15 01:46:10;;;;;;;1.33;0.90;;;17.50;71.30;;;;;;5114988;28;20291;-64
2023/10/15 01:48:40;;;;;;;1.35;1.00;;;17.50;71.40;;;;;;5115799;28;20169;-65
2023/10/15 01:51:06;;;;;;;0.82;0.70;;;17.50;71.30;;;;;;5115421;28;20237;-64
2023/10/15 01:53:34;;;;;;;1.27;0.90;;;17.50;71.30;;;;;;5114750;28;20188;-65
2023/10/15 01:56:00;;;;;;;1.05;0.65;;;17.50;71.40;;;;;;5115629;28;20184;-65
2023/10/15 01:58:32;;;;;;;1.67;0.90;;;17.40;71.20;;;;;;5115519;28;20176;-66
2023/10/15 02:01:13;;;;;;;1.33;0.70;;;17.50;71.40;;;;;;5114809;28;20185;-65
2023/10/15 02:03:41;;;;;;;1.13;0.75;;;17.50;71.40;;;;;;5115444;28;20176;-65
2023/10/15 02:06:07;;;;;;;1.45;0.80;;;17.50;71.40;;;;;;5114388;28;20216;-65
2023/10/15 02:08:33;;;;;;;1.27;0.80;;;17.40;71.20;;;;;;5115114;28;20179;-66
2023/10/15 02:11:04;;;;;;;1.60;1.20;;;17.50;71.40;;;;;;5115342;28;20176;-66
2023/10/15 02:13:31;;;;;;;1.17;0.70;;;17.40;71.30;;;;;;5096916;28;20169;-65
2023/10/15 02:15:57;;;;;;;1.60;0.90;;;17.40;71.20;;;;;;5115494;28;20240;-65
2023/10/15 02:18:22;;;;;;;1.88;0.70;;;17.40;71.20;;;;;;5115082;28;20177;-65
2023/10/15 02:23:18;;;;;;;2.05;0.82;;;17.40;71.30;;;;;;5114869;28;20177;-65
2023/10/15 02:25:47;;;;;;;1.15;0.77;;;17.40;71.20;;;;;;5115066;28;20292;-65
2023/10/15 02:28:39;;;;;;;1.13;0.75;;;17.40;71.20;;;;;;5114131;28;20165;-64
2023/10/15 02:33:30;;;;;;;2.15;1.10;;;17.40;71.40;;;;;;5115051;28;20203;-65
2023/10/15 02:35:59;;;;;;;2.08;0.80;;;17.40;72.20;;;;;;5114374;28;20200;-65
2023/10/15 02:38:36;;;;;;;0.80;0.75;;;17.40;71.40;;;;;;5114586;28;20169;-65
2023/10/15 02:41:05;;;;;;;1.27;0.90;;;17.40;71.40;;;;;;5114652;28;20173;-64
2023/10/15 02:43:31;;;;;;;2.25;1.00;;;17.40;71.40;;;;;;5113789;28;20549;-65
2023/10/15 02:46:00;;;;;;;1.27;0.70;;;17.40;71.30;;;;;;5114801;28;20216;-64
2023/10/15 02:48:26;;;;;;;0.95;0.68;;;17.30;71.30;;;;;;5113913;28;20169;-65
2023/10/15 02:51:00;;;;;;;1.00;0.50;;;17.40;71.40;;;;;;5114335;28;20221;-64
2023/10/15 02:53:33;;;;;;;1.35;0.90;;;17.30;71.30;;;;;;5114353;28;20180;-65
2023/10/15 02:55:59;;;;;;;0.70;0.70;;;17.30;71.30;;;;;;5113528;28;20173;-65
2023/10/15 02:58:30;;;;;;;0.82;0.75;;;17.30;71.30;;;;;;5114218;28;20182;-66
2023/10/15 03:00:59;;;;;;;1.00;0.70;;;17.40;71.40;;;;;;5114568;28;20196;-65
2023/10/15 03:03:34;;;;;;;1.23;0.88;;;17.30;71.30;;;;;;5113515;28;20538;-65
2023/10/15 03:06:01;;;;;;;0.70;0.70;;;17.30;71.40;;;;;;5114127;28;20208;-64
2023/10/15 03:08:32;;;;;;;1.17;0.70;;;17.30;71.40;;;;;;5113964;28;20173;-66
2023/10/15 03:11:02;;;;;;;1.38;0.85;;;17.30;71.40;;;;;;5113428;28;20173;-66
2023/10/15 03:13:28;;;;;;;0.82;0.82;;;17.30;71.40;;;;;;5114090;28;20244;-66
2023/10/15 03:15:57;;;;;;;1.27;0.80;;;17.30;71.40;;;;;;5114100;28;20219;-65
2023/10/15 03:18:23;;;;;;;1.15;0.80;;;17.40;71.50;;;;;;5113250;28;20177;-65
2023/10/15 03:21:00;;;;;;;0.95;0.68;;;17.30;71.40;;;;;;5113904;28;20180;-64
2023/10/15 03:23:25;;;;;;;1.35;0.90;;;17.30;71.40;;;;;;5113438;28;20248;-65
2023/10/15 03:25:57;;;;;;;1.27;0.73;;;17.30;71.40;;;;;;5113865;28;20743;-65
2023/10/15 03:28:23;;;;;;;1.20;0.73;;;17.30;71.40;;;;;;5113822;28;20199;-65
2023/10/15 03:30:49;;;;;;;1.85;0.90;;;17.30;71.40;;;;;;5113189;28;20507;-64
2023/10/15 03:33:17;;;;;;;1.85;0.80;;;17.30;71.40;;;;;;5113212;28;20175;-65
2023/10/15 03:35:54;;;;;;;1.25;0.65;;;17.30;71.40;;;;;;5113611;28;20181;-65
2023/10/15 03:38:23;;;;;;;0.43;0.43;;;17.30;71.40;;;;;;5112525;28;20177;-65
2023/10/15 03:41:06;;;;;;;1.58;0.75;;;17.30;71.40;;;;;;5113722;28;20196;-65
2023/10/15 03:43:34;;;;;;;0.70;0.52;;;17.30;71.40;;;;;;5113431;28;20188;-64
2023/10/15 03:46:13;;;;;;;0.95;0.63;;;17.30;71.30;;;;;;5112514;28;20209;-64
2023/10/15 03:48:47;;;;;;;0.60;0.60;;;17.20;71.30;;;;;;5113556;28;20169;-65
2023/10/15 03:51:20;;;;;;;1.23;0.70;;;17.20;71.30;;;;;;5113126;28;20304;-64
2023/10/15 03:53:49;;;;;;;0.60;0.60;;;17.30;71.30;;;;;;5112675;28;20278;-65
2023/10/15 03:56:19;;;;;;;0.50;0.50;;;17.20;71.40;;;;;;5112987;28;20252;-65
2023/10/15 03:58:45;;;;;;;1.13;0.63;;;17.20;71.30;;;;;;5112760;28;20248;-65
2023/10/15 04:01:17;;;;;;;1.40;0.52;;;17.20;71.30;;;;;;5113275;28;20188;-64
2023/10/15 04:03:43;;;;;;;0.60;0.60;;;17.30;71.60;;;;;;5113337;28;20195;-64
2023/10/15 04:06:09;;;;;;;0.60;0.60;;;17.30;71.40;;;;;;5112379;28;20244;-64
2023/10/15 04:08:37;;;;;;;0.43;0.40;;;17.30;71.40;;;;;;5113094;28;20268;-65
2023/10/15 04:11:02;;;;;;;0.77;0.75;;;17.20;71.40;;;;;;5112838;28;20201;-65
2023/10/15 04:13:28;;;;;;;0.63;0.63;;;17.20;71.40;;;;;;5112125;28;20208;-65
2023/10/15 04:15:54;;;;;;;0.90;0.70;;;17.20;71.30;;;;;;5113271;28;20177;-64
2023/10/15 04:18:24;;;;;;;1.17;0.68;;;17.20;72.10;;;;;;5113032;28;20222;-65
2023/10/15 04:20:54;;;;;;;0.60;0.50;;;17.20;71.20;;;;;;5112469;28;20222;-65
2023/10/15 04:23:31;;;;;;;1.02;0.52;;;17.20;71.20;;;;;;5112588;28;20212;-65
2023/10/15 04:26:09;;;;;;;0.43;0.43;;;17.20;72.00;;;;;;5113162;28;20208;-64
2023/10/15 04:28:36;;;;;;;0.80;0.60;;;17.20;71.20;;;;;;5112255;28;20550;-64
2023/10/15 04:31:22;;;;;;;0.98;0.60;;;17.20;71.20;;;;;;5112777;28;20216;-64
2023/10/15 04:33:51;;;;;;;0.50;0.50;;;17.20;71.30;;;;;;5112242;28;20169;-65
2023/10/15 04:36:19;;;;;;;1.23;0.60;;;17.20;71.40;;;;;;5112642;28;20218;-64
2023/10/15 04:38:45;;;;;;;0.63;0.57;;;17.20;71.40;;;;;;5112844;28;20180;-65
2023/10/15 04:41:10;;;;;;;0.57;0.57;;;17.20;71.30;;;;;;5111935;28;20165;-64
2023/10/15 04:43:45;;;;;;;0.50;0.45;;;17.20;71.40;;;;;;5113834;28;20567;-64
2023/10/15 04:46:25;;;;;;;1.58;0.70;;;17.20;71.30;;;;;;5116714;28;20236;-64
2023/10/15 04:48:51;;;;;;;0.95;0.73;;;17.20;71.40;;;;;;5116430;28;20227;-64
2023/10/15 04:51:16;;;;;;;0.65;0.50;;;17.20;71.30;;;;;;5116360;28;20635;-64
2023/10/15 04:53:44;;;;;;;1.05;0.60;;;17.20;71.40;;;;;;5116714;28;20202;-65
2023/10/15 04:56:10;;;;;;;0.57;0.50;;;17.10;71.30;;;;;;5115872;28;20208;-64
2023/10/15 04:58:35;;;;;;;0.60;0.50;;;17.10;71.30;;;;;;5116637;28;20201;-65
2023/10/15 05:01:04;;;;;;;0.77;0.50;;;17.10;71.30;;;;;;5116337;28;20182;-64
2023/10/15 05:03:31;;;;;;;1.30;0.80;;;17.10;71.40;;;;;;5115756;28;20635;-65
2023/10/15 05:06:01;;;;;;;1.10;0.70;;;17.10;71.30;;;;;;5116531;28;20685;-64
2023/10/15 05:08:26;;;;;;;0.85;0.60;;;17.10;71.30;;;;;;5116449;28;20177;-65
2023/10/15 05:10:52;;;;;;;1.38;0.80;;;17.10;71.30;;;;;;5115854;28;20174;-65
2023/10/15 05:13:18;;;;;;;0.45;0.45;;;17.10;71.30;;;;;;5116125;28;20201;-65
2023/10/15 05:15:47;;;;;;;0.43;0.43;;;17.10;71.30;;;;;;5098135;28;20269;-65
2023/10/15 05:18:13;;;;;;;0.63;0.60;;;17.10;71.40;;;;;;5115681;28;20256;-64
2023/10/15 05:20:39;;;;;;;0.30;0.30;;;17.10;71.40;;;;;;5116242;28;20268;-64
2023/10/15 05:23:04;;;;;;;0.43;0.40;;;17.10;71.40;;;;;;5115666;28;20264;-65
2023/10/15 05:25:30;;;;;;;0.95;0.70;;;17.10;71.30;;;;;;5116216;28;20663;-64
2023/10/15 05:27:55;;;;;;;0.90;0.60;;;17.10;71.30;;;;;;5116414;28;20257;-65
2023/10/15 05:30:21;;;;;;;0.50;0.50;;;17.10;71.30;;;;;;5115538;28;20234;-64
2023/10/15 05:32:53;;;;;;;0.80;0.60;;;17.10;71.40;;;;;;5116354;28;20208;-64
2023/10/15 05:35:18;;;;;;;0.70;0.50;;;17.10;72.20;;;;;;5114970;28;20189;-64
2023/10/15 05:37:44;;;;;;;0.60;0.60;;;17.10;71.40;;;;;;5115164;28;20569;-65
2023/10/15 05:40:12;;;;;;;0.38;0.38;;;17.00;71.30;;;;;;5115746;28;20177;-64
2023/10/15 05:42:38;;;;;;;1.17;0.32;;;17.00;71.30;;;;;;5115842;28;20177;-65
2023/10/15 05:45:06;;;;;;;0.50;0.50;;;17.10;71.40;;;;;;5115076;28;20208;-64
2023/10/15 05:47:33;;;;;;;1.02;0.60;;;17.10;71.40;;;;;;5115999;28;20180;-64
2023/10/15 05:49:58;;;;;;;1.08;0.50;;;17.00;71.30;;;;;;5115778;28;20173;-64
2023/10/15 05:52:24;;;;;;;0.63;0.47;;;17.00;71.30;;;;;;5114641;28;20738;-65
2023/10/15 05:54:53;;;;;;;0.90;0.50;;;17.00;71.30;;;;;;5115604;28;20194;-65
2023/10/15 05:57:21;;;;;;;0.93;0.73;;;17.00;71.30;;;;;;5115318;28;20299;-65
2023/10/15 05:59:48;;;;;;;0.63;0.50;;;17.00;71.40;;;;;;5097265;28;20200;-64
2023/10/15 06:02:14;;;;;;;0.40;0.40;;;17.00;71.30;;;;;;5115429;28;20176;-64
2023/10/15 06:04:39;;;;;;;0.40;0.40;;;17.00;71.20;;;;;;5115209;28;20311;-64
2023/10/15 06:07:05;;;;;;;0.55;0.47;;;17.00;71.20;;;;;;5114924;28;20203;-64
2023/10/15 06:09:31;;;;;;;0.40;0.40;;;17.00;71.20;;;;;;5115140;28;20178;-65
2023/10/15 06:11:57;;;;;;;0.75;0.50;;;17.00;71.20;;;;;;5115309;28;20177;-65
2023/10/15 06:14:23;;;;;;;0.57;0.57;;;17.00;71.20;;;;;;5114290;28;20176;-65
2023/10/15 06:16:52;;;;;;;0.50;0.38;;;17.00;71.20;;;;;;5115363;28;20203;-64
2023/10/15 06:19:18;;;;;;;0.95;0.45;;;17.00;71.20;;;;;;5114354;28;20192;-64
2023/10/15 06:21:44;;;;;;;0.52;0.47;;;16.90;71.20;;;;;;5115304;28;20563;-64
2023/10/15 06:24:10;;;;;;;0.55;0.47;;;17.00;71.20;;;;;;5115071;28;20177;-65
2023/10/15 06:26:37;;;;;;;0.68;0.50;;;17.00;72.10;;;;;;5114456;28;20220;-64
2023/10/15 06:29:03;;;;;;;0.65;0.40;;;16.90;71.20;;;;;;5115041;28;20189;-66
2023/10/15 06:31:28;;;;;;;0.70;0.50;;;16.90;71.20;;;;;;5114969;28;20181;-63
2023/10/15 06:33:55;;;;;;;0.75;0.50;;;16.90;71.10;;;;;;5114386;28;20177;-64
2023/10/15 06:36:21;;;;;;;0.40;0.40;;;16.90;71.20;;;;;;5114465;28;20547;-63
2023/10/15 06:38:47;;;;;;;0.40;0.40;;;16.90;71.10;;;;;;5114609;28;20635;-64
2023/10/15 06:41:12;;;;;;;0.60;0.40;;;16.90;71.10;;;;;;5113765;28;20652;-64
2023/10/15 06:43:38;;;;;;;0.40;0.40;;;16.90;71.10;;;;;;5114761;28;20260;-64
2023/10/15 06:46:06;;;;;;;0.52;0.52;;;16.90;71.10;;;;;;5114639;28;20303;-63
2023/10/15 06:48:33;;;;;;;0.30;0.30;;;16.90;71.10;;;;;;5113836;28;20176;-63
2023/10/15 06:50:59;;;;;;;0.60;0.60;;;17.00;71.10;;;;;;5114119;28;20256;-64
2023/10/15 06:53:24;;;;;;;0.60;0.52;;;17.00;71.10;;;;;;5114359;28;20211;-65
2023/10/15 06:55:51;;;;;;;0.60;0.60;;;17.00;71.00;;;;;;5114006;28;20210;-65
2023/10/15 06:58:17;;;;;;;0.70;0.38;;;17.00;70.90;;;;;;5114411;28;20170;-65
2023/10/15 07:00:42;;;;;;;0.60;0.60;;;17.00;70.90;;;;;;5114507;28;20185;-64
2023/10/15 07:03:08;;;;;;;0.55;0.50;;;17.00;71.70;;;;;;5113575;28;20173;-63
2023/10/15 07:05:33;;;;;;;0.98;0.70;;;17.00;70.80;;;;;;5113988;28;20209;-63
2023/10/15 07:07:59;;;;;;;1.55;0.68;;;17.00;70.80;;;;;;5113379;28;20169;-64
2023/10/15 07:10:24;;;;;;;0.50;0.40;;;17.00;70.90;;;;;;5113471;28;20188;-64
2023/10/15 07:12:52;;;;;;;0.57;0.57;;;16.90;70.90;;;;;;5114372;28;20169;-65
2023/10/15 07:15:20;;;;;;;0.60;0.43;;;17.00;71.00;;;;;;5113708;28;20663;-65
2023/10/15 07:17:46;;;;;;;0.47;0.40;;;16.90;71.00;;;;;;5113360;28;20181;-63
2023/10/15 07:20:14;;;;;;;0.40;0.40;;;16.90;71.00;;;;;;5113812;28;20518;-63
2023/10/15 07:22:42;;;;;;;0.60;0.40;;;16.90;71.10;;;;;;5113115;28;20288;-64
2023/10/15 07:25:08;;;;;;;0.57;0.55;;;16.90;71.10;;;;;;5113959;28;20209;-63
2023/10/15 07:27:35;;;;;;;0.40;0.40;;;16.90;71.00;;;;;;5113994;28;20181;-63
2023/10/15 07:30:01;;;;;;;0.52;0.52;;;17.00;71.10;;;;;;5113273;28;20178;-63
2023/10/15 07:32:27;;;;;;;0.38;0.35;;;17.00;71.10;;;;;;5113749;28;20284;-64
2023/10/15 07:34:53;;;;;;;1.05;0.40;;;16.90;71.00;;;;;;5113783;28;20691;-63
2023/10/15 07:37:19;;;;;;;1.20;0.40;;;17.00;71.10;;;;;;5112794;28;20264;-64
2023/10/15 07:39:45;;;;;;;0.52;0.43;;;17.00;71.10;;;;;;5113701;28;20180;-64
2023/10/15 07:42:11;;;;;;;1.27;0.60;;;16.90;71.10;;;;;;5113332;28;20177;-65
2023/10/15 07:44:36;;;;;;;0.50;0.50;;;16.90;71.10;;;;;;5112646;28;20172;-64
2023/10/15 07:47:02;;;;;;;1.00;0.60;;;16.90;71.10;;;;;;5113466;28;20176;-64
2023/10/15 07:49:28;;;;;;;0.82;0.73;;;16.90;71.10;;;;;;5113298;28;20173;-64
2023/10/15 07:51:54;;;;;;;0.50;0.50;;;16.90;71.10;;;;;;5112590;28;20240;-64
2023/10/15 07:54:19;;;;;;;1.05;0.65;;;16.90;71.10;;;;;;5113367;28;20173;-65
2023/10/15 07:56:45;;;;;;;0.63;0.50;;;16.90;71.10;;;;;;5113330;28;20176;-65
2023/10/15 07:59:10;;;;;;;0.40;0.40;;;16.90;71.20;;;;;;5112269;28;20173;-65
2023/10/15 08:01:39;;;;;;;0.80;0.40;;;16.90;71.10;;;;;;5113152;28;20173;-64
2023/10/15 08:04:06;;;;;;;0.63;0.50;;;16.90;71.20;;;;;;5095294;28;20180;-64
2023/10/15 08:06:34;;;;;;;0.55;0.40;;;16.90;71.20;;;;;;5112156;28;20279;-63
2023/10/15 08:08:59;;;;;;;0.85;0.35;;;16.90;71.10;;;;;;5112945;28;20256;-64
2023/10/15 08:11:25;;;;;;;0.43;0.40;;;16.90;71.20;;;;;;5112946;28;20219;-64
2023/10/15 08:13:50;;;;;;;0.40;0.30;;;17.00;71.20;;;;;;5112537;28;20169;-64
2023/10/15 08:16:18;;;;;;;0.38;0.30;;;17.00;71.10;;;;;;5112863;28;20175;-64
2023/10/15 08:18:44;;;;;;;0.50;0.40;;;17.00;71.10;;;;;;5112001;28;20172;-64
2023/10/15 08:21:11;;;;;;;0.70;0.50;;;17.00;71.10;;;;;;5112368;28;20242;-64
2023/10/15 08:23:39;;;;;;;0.70;0.50;;;16.90;71.10;;;;;;5113138;28;20181;-64
2023/10/15 08:26:05;;;;;;;0.70;0.70;;;16.90;71.10;;;;;;5112037;28;20213;-64
2023/10/15 08:28:32;;;;;;;0.70;0.55;;;16.90;71.20;;;;;;5112861;28;20173;-64
2023/10/15 08:30:57;;;;;;;0.60;0.30;;;16.90;71.20;;;;;;5112805;28;20199;-64
2023/10/15 08:33:23;;;;;;;0.43;0.40;;;16.90;71.20;;;;;;5112053;28;20616;-64
2023/10/15 08:35:49;;;;;;;0.63;0.50;;;16.90;71.30;;;;;;5112952;28;20268;-63
2023/10/15 08:38:15;;;;;;;0.55;0.50;;;16.90;71.30;;;;;;5112797;28;20180;-64
2023/10/15 08:40:45;;;;;;;0.40;0.38;;;16.90;71.30;;;;;;5112323;28;20188;-64
2023/10/15 08:43:35;;;;;;;0.77;0.40;;;16.90;71.30;;;;;;5078922;28;20192;-64
2023/10/15 08:46:00;;;;;;;0.30;0.30;;;16.90;71.30;;;;;;5080608;28;20205;-63
2023/10/15 08:48:28;;;;;;;0.80;0.60;;;16.90;71.20;;;;;;5093626;28;20172;-64
2023/10/15 08:50:54;;;;;;;0.65;0.57;;;17.00;71.20;;;;;;5069739;28;20226;-64
2023/10/15 08:53:22;;;;;;;0.32;0.30;;;17.00;71.20;;;;;;5070745;28;20175;-64
2023/10/15 08:55:47;;;;;;;0.73;0.40;;;16.90;71.10;;;;;;5070259;28;20633;-64
2023/10/15 08:58:13;;;;;;;0.45;0.43;;;16.90;71.10;;;;;;5071797;28;20178;-65
2023/10/15 09:00:39;;;;;;;0.93;0.75;;;16.90;71.10;;;;;;5054071;28;20178;-63
2023/10/15 09:03:04;;;;;;;0.40;0.40;;;17.00;71.10;;;;;;5071348;28;20174;-64
2023/10/15 09:05:33;;;;;;;0.57;0.50;;;16.90;71.20;;;;;;5071910;28;20210;-63
2023/10/15 09:08:06;;;;;;;0.88;0.50;;;16.90;71.20;;;;;;5071885;28;20254;-64
2023/10/15 09:10:32;;;;;;;0.77;0.60;;;17.00;72.10;;;;;;5072278;28;20183;-64
2023/10/15 09:12:59;;;;;;;0.30;0.30;;;17.00;71.30;;;;;;5071724;28;20206;-65
2023/10/15 09:15:28;;;;;;;0.85;0.50;;;16.90;71.20;;;;;;5071414;28;20191;-64
2023/10/15 09:17:58;;;;;;;1.05;0.68;;;17.00;71.20;;;;;;5071000;28;20224;-64
2023/10/15 09:20:33;;;;;;;0.75;0.47;;;17.00;71.10;;;;;;5071811;28;20178;-64
2023/10/15 09:22:59;;;;;;;0.80;0.57;;;17.10;71.10;;;;;;5071011;28;20201;-64
2023/10/15 09:25:28;;;;;;;0.40;0.40;;;17.10;70.60;;;;;;5072066;28;20228;-64
2023/10/15 09:27:54;;;;;;;0.68;0.50;;;17.20;70.50;;;;;;5072222;28;20170;-64
2023/10/15 09:30:26;;;;;;;1.13;0.50;;;17.20;70.40;;;;;;5073155;28;20174;-64
2023/10/15 09:32:52;;;;;;;0.70;0.60;;;17.20;70.50;;;;;;5075279;28;20644;-65
2023/10/15 09:35:18;;;;;;;0.47;0.47;;;17.20;70.50;;;;;;5075165;28;20178;-64
2023/10/15 09:37:44;;;;;;;0.73;0.40;;;17.20;70.70;;;;;;5074618;28;20182;-65
2023/10/15 09:40:10;;;;;;;0.50;0.40;;;17.20;70.70;;;;;;5075002;28;20655;-64
2023/10/15 09:42:38;;;;;;;0.85;0.50;;;17.10;70.70;;;;;;5075339;28;20253;-65
2023/10/15 09:45:08;;;;;;;0.40;0.40;;;17.20;70.90;;;;;;5074441;28;20293;-64
2023/10/15 09:47:39;;;;;;;0.77;0.45;;;17.20;71.00;;;;;;5057706;28;20543;-64
2023/10/15 09:50:09;;;;;;;0.80;0.57;;;17.20;71.10;;;;;;5075012;28;20178;-64
2023/10/15 09:52:35;;;;;;;0.43;0.40;;;17.20;70.60;;;;;;5056991;28;20218;-64
2023/10/15 09:55:02;;;;;;;0.52;0.47;;;17.30;70.50;;;;;;5057218;28;20166;-65
2023/10/15 09:57:28;;;;;;;0.30;0.30;;;17.40;70.20;;;;;;5073212;28;20279;-64
2023/10/15 09:59:53;;;;;;;0.75;0.43;;;17.50;70.10;;;;;;5073768;28;20278;-64
2023/10/15 10:02:32;;;;;;;0.50;0.50;;;17.40;70.20;;;;;;5073425;28;20607;-64
2023/10/15 10:05:44;;;;;;;0.75;0.55;;;17.30;70.20;;;;;;5056592;28;20206;-64
2023/10/15 10:08:34;;;;;;;1.30;0.60;;;17.30;70.60;;;;;;5074929;28;20178;-64
2023/10/15 10:11:18;;;;;;;0.40;0.40;;;17.30;70.70;;;;;;5074664;28;20266;-65
2023/10/15 10:14:15;;;;;;;1.58;0.40;;;17.30;70.80;;;;;;5074289;28;20177;-64
2023/10/15 10:16:42;;;;;;;0.50;0.32;;;17.30;70.90;;;;;;5045803;28;20174;-64
2023/10/15 10:19:08;;;;;;;0.63;0.60;;;17.20;70.90;;;;;;5072786;28;20209;-65
2023/10/15 10:21:34;;;;;;;0.75;0.40;;;17.20;71.00;;;;;;5074448;28;20185;-63
2023/10/15 10:24:02;;;;;;;0.60;0.60;;;17.30;71.10;;;;;;5073247;28;20175;-64
2023/10/15 10:26:30;;;;;;;0.43;0.40;;;17.20;71.00;;;;;;5073728;28;20296;-64
2023/10/15 10:28:56;;;;;;;0.60;0.60;;;17.20;71.00;;;;;;5056766;28;20181;-65
2023/10/15 10:31:22;;;;;;;1.45;0.70;;;17.20;71.00;;;;;;5056465;28;20181;-64
2023/10/15 10:33:49;;;;;;;1.38;0.47;;;17.30;71.00;;;;;;5073731;28;20171;-64
2023/10/15 10:36:19;;;;;;;0.75;0.55;;;17.30;70.80;;;;;;5073831;28;20537;-64
2023/10/15 10:38:56;;;;;;;0.73;0.52;;;17.30;70.60;;;;;;5074350;28;20286;-65
2023/10/15 10:41:22;;;;;;;0.50;0.50;;;17.30;70.60;;;;;;5072551;28;20181;-64
2023/10/15 10:43:48;;;;;;;0.40;0.40;;;17.40;70.60;;;;;;5056274;28;20253;-65
2023/10/15 10:46:23;;;;;;;0.45;0.45;;;17.50;70.30;;;;;;5073604;28;20573;-64
2023/10/15 10:49:04;;;;;;;0.50;0.50;;;17.50;70.20;;;;;;5073430;28;20166;-64
2023/10/15 10:51:30;;;;;;;0.43;0.40;;;17.50;70.30;;;;;;5093750;28;20786;-63
2023/10/15 10:53:56;;;;;;;0.47;0.40;;;17.60;70.40;;;;;;5114009;28;20181;-64
2023/10/15 10:56:25;;;;;;;0.30;0.30;;;17.60;70.10;;;;;;5114202;28;20215;-64
2023/10/15 10:58:57;;;;;;;0.30;0.30;;;17.60;69.90;;;;;;5114537;28;20180;-64
2023/10/15 11:01:23;;;;;;;0.90;0.45;;;17.70;69.80;;;;;;5095583;28;20238;-62
2023/10/15 11:03:52;;;;;;;0.95;0.57;;;17.70;69.80;;;;;;5114321;28;20640;-64
2023/10/15 11:06:18;;;;;;;5.88;1.08;;;17.70;69.70;;;;;;5114220;28;20216;-63
2023/10/15 11:08:47;;;;;;;0.73;0.55;;;17.70;69.60;;;;;;5113564;28;20173;-64
2023/10/15 11:11:13;;;;;;;1.77;0.60;;;17.80;69.80;;;;;;5113921;28;20173;-63
2023/10/15 11:13:38;;;;;;;2.58;0.60;;;17.80;69.70;;;;;;5079077;28;20264;-64
2023/10/15 11:16:04;;;;;;;1.90;0.70;;;17.80;69.80;;;;;;5094760;28;20173;-63
2023/10/15 11:18:31;;;;;;;2.45;0.40;;;17.80;69.80;;;;;;5096001;28;20165;-63
2023/10/15 11:20:57;;;;;;;1.23;0.52;;;17.90;69.60;;;;;;5114178;28;20264;-63
2023/10/15 11:23:23;;;;;;;2.58;0.60;;;18.00;69.50;;;;;;5113006;28;20268;-64
2023/10/15 11:25:55;;;;;;;1.85;0.60;;;17.90;69.50;;;;;;5113920;28;20240;-62
2023/10/15 11:28:21;;;;;;;2.97;0.80;;;17.90;69.50;;;;;;5078873;28;20656;-63
2023/10/15 11:30:46;;;;;;;3.05;0.65;;;18.00;69.50;;;;;;5094662;28;20177;-62
2023/10/15 11:33:17;;;;;;;2.92;0.68;;;18.00;69.70;;;;;;5095511;28;20203;-63
2023/10/15 11:35:44;;;;;;;0.80;0.43;;;18.00;69.70;;;;;;5095784;28;20173;-63
2023/10/15 11:38:10;;;;;;;1.17;0.65;;;18.00;69.60;;;;;;5113305;28;20260;-63
2023/10/15 11:40:39;;;;;;;1.52;0.43;;;18.10;69.60;;;;;;5113555;28;20267;-62
2023/10/15 11:43:17;;;;;;;1.63;0.65;;;18.10;69.50;;;;;;5112659;28;20269;-63
2023/10/15 11:45:43;;;;;;;2.17;0.40;;;18.10;69.70;;;;;;5113426;28;20220;-62
2023/10/15 11:48:11;;;;;;;2.30;0.47;;;18.10;69.70;;;;;;5095399;28;20169;-62
2023/10/15 11:50:40;;;;;;;1.45;0.60;;;18.10;69.70;;;;;;5094801;28;20177;-61
2023/10/15 11:53:12;;;;;;;0.80;0.73;;;18.10;69.70;;;;;;5113113;28;20177;-62
2023/10/15 11:55:38;;;;;;;3.42;0.73;;;18.00;69.80;;;;;;5113059;28;20222;-62
2023/10/15 11:58:10;;;;;;;1.40;0.55;;;18.00;70.00;;;;;;5077385;28;20169;-63
2023/10/15 12:00:39;;;;;;;1.30;0.50;;;17.90;70.20;;;;;;5113187;28;20179;-62
2023/10/15 12:03:05;;;;;;;1.85;0.70;;;17.80;70.20;;;;;;5113042;28;20201;-62
2023/10/15 12:05:32;;;;;;;0.95;0.43;;;17.80;70.30;;;;;;5112193;28;20217;-62
2023/10/15 12:08:01;;;;;;;1.58;0.60;;;17.80;70.40;;;;;;5112482;28;20185;-63
2023/10/15 12:10:31;;;;;;;3.05;0.85;;;17.70;70.50;;;;;;5112887;28;20177;-62
2023/10/15 12:12:59;;;;;;;1.30;0.63;;;17.70;70.50;;;;;;5112812;28;20175;-63
2023/10/15 12:15:30;;;;;;;1.75;0.50;;;17.60;70.60;;;;;;5112956;28;20191;-62
2023/10/15 12:17:56;;;;;;;0.47;0.40;;;17.70;70.70;;;;;;5113085;28;20256;-62
2023/10/15 12:20:23;;;;;;;1.70;0.50;;;17.70;70.50;;;;;;5112399;28;20181;-62
2023/10/15 12:22:48;;;;;;;2.13;0.60;;;17.80;70.50;;;;;;5112970;28;20192;-62
2023/10/15 12:25:14;;;;;;;1.75;0.50;;;17.80;70.30;;;;;;5111665;28;20644;-62
2023/10/15 12:27:40;;;;;;;1.08;0.43;;;17.90;70.10;;;;;;5112842;28;20177;-62
2023/10/15 12:30:07;;;;;;;0.55;0.43;;;17.90;70.00;;;;;;5112928;28;20169;-63
2023/10/15 12:32:33;;;;;;;0.95;0.52;;;17.90;70.00;;;;;;5112112;28;20177;-63
2023/10/15 12:35:00;;;;;;;1.33;0.60;;;17.90;69.90;;;;;;5112657;28;20199;-64
2023/10/15 12:37:30;;;;;;;1.27;0.57;;;17.80;70.10;;;;;;5112643;28;20177;-64
2023/10/15 12:39:57;;;;;;;1.55;0.60;;;17.80;70.20;;;;;;5094907;28;20177;-63
2023/10/15 12:42:23;;;;;;;1.23;0.50;;;17.70;70.40;;;;;;5112612;28;20181;-64
2023/10/15 12:44:49;;;;;;;1.42;0.60;;;17.70;70.50;;;;;;5112775;28;20181;-63
2023/10/15 12:47:15;;;;;;;2.58;0.50;;;17.80;70.30;;;;;;5111665;28;20169;-63
2023/10/15 12:49:41;;;;;;;2.45;0.60;;;17.70;70.20;;;;;;5112876;28;20176;-63
2023/10/15 12:52:08;;;;;;;1.70;0.40;;;17.60;70.10;;;;;;5112439;28;20239;-63
2023/10/15 12:54:36;;;;;;;1.05;0.57;;;17.70;70.30;;;;;;5111962;28;20177;-63
2023/10/15 12:57:05;;;;;;;3.38;0.82;;;17.70;70.00;;;;;;5112372;28;20199;-64
2023/10/15 12:59:30;;;;;;;1.02;0.60;;;17.60;70.00;;;;;;5112327;28;20185;-64
2023/10/15 13:01:57;;;;;;;0.68;0.50;;;17.60;70.10;;;;;;5111901;28;20755;-62